Time;durP1;ratioP1;P1;durP2;ratioP2;P2;SDS_P1;SDS_P2;PMS_P1;PMS_P2;Temp;Humidity;BMP_temperature;BMP_pressure;BME280_temperature;BME280_humidity;BME280_pressure;Samples;Min_cycle;Max_cycle;Signal;HPM_P1;HPM_P2
2022/12/12 00:01:22;;;;;;;31.42;18.40;;;;;;;;;;5066751;28;20068;-73
2022/12/12 00:03:49;;;;;;;36.70;17.27;;;;;;;;;;5067876;28;20036;-74
2022/12/12 00:06:15;;;;;;;30.25;19.17;;;;;;;;;;5068359;28;20049;-74
2022/12/12 00:08:41;;;;;;;28.40;19.48;;;;;;;;;;5067263;28;20039;-72
2022/12/12 00:11:07;;;;;;;30.65;17.00;;;;;;;;;;5071223;28;20235;-74
2022/12/12 00:13:34;;;;;;;28.88;16.70;;;;;;;;;;5066540;28;20568;-74
2022/12/12 00:16:00;;;;;;;29.20;17.83;;;;;;;;;;5067125;28;20490;-73
2022/12/12 00:18:26;;;;;;;30.73;18.00;;;;;;;;;;5067577;28;20048;-73
2022/12/12 00:20:56;;;;;;;34.00;20.58;;;;;;;;;;5072257;28;20029;-73
2022/12/12 00:23:23;;;;;;;34.25;17.40;;;;;;;;;;5072393;28;20034;-73
2022/12/12 00:25:56;;;;;;;32.78;17.13;;;;;;;;;;5073781;28;20079;-73
2022/12/12 00:28:22;;;;;;;34.95;19.92;;;;;;;;;;5061990;28;20040;-73
2022/12/12 00:30:49;;;;;;;37.17;19.25;;;;;;;;;;5067347;28;20500;-73
2022/12/12 00:33:15;;;;;;;34.78;20.63;;;;;;;;;;5067046;28;20076;-73
2022/12/12 00:35:41;;;;;;;35.13;18.77;;;;;;;;;;5069014;28;20155;-73
2022/12/12 00:38:07;;;;;;;30.80;19.70;;;;;;;;;;5067340;28;20048;-73
2022/12/12 00:40:33;;;;;;;31.02;17.73;;;;;;;;;;5069186;28;20142;-73
2022/12/12 00:42:59;;;;;;;33.88;18.92;;;;;;;;;;5049563;28;20071;-73
2022/12/12 00:45:25;;;;;;;32.95;18.15;;;;;;;;;;5042858;28;20123;-73
2022/12/12 00:47:51;;;;;;;37.33;20.02;;;;;;;;;;5072898;28;20040;-73
2022/12/12 00:50:18;;;;;;;30.02;16.83;;;;;;;;;;5067002;28;20074;-73
2022/12/12 00:52:44;;;;;;;29.67;16.80;;;;;;;;;;5068019;28;20076;-73
2022/12/12 00:55:11;;;;;;;31.88;18.67;;;;;;;;;;5074536;28;20123;-73
2022/12/12 00:57:37;;;;;;;37.35;19.65;;;;;;;;;;5075115;28;20713;-73
2022/12/12 01:00:04;;;;;;;34.25;19.02;;;;;;;;;;5088624;28;20406;-74
2022/12/12 01:02:30;;;;;;;29.30;17.92;;;;;;;;;;5090963;28;20389;-74
2022/12/12 01:04:57;;;;;;;36.20;19.17;;;;;;;;;;5086118;28;20070;-73
2022/12/12 01:07:23;;;;;;;34.85;19.60;;;;;;;;;;5090149;28;20123;-74
2022/12/12 01:09:49;;;;;;;35.60;17.30;;;;;;;;;;5107338;28;20043;-73
2022/12/12 01:12:15;;;;;;;36.17;18.58;;;;;;;;;;5087248;28;20051;-73
2022/12/12 01:14:41;;;;;;;31.23;17.02;;;;;;;;;;5067330;28;20068;-73
2022/12/12 01:17:07;;;;;;;34.10;18.23;;;;;;;;;;5082515;28;20261;-73
2022/12/12 01:19:33;;;;;;;25.55;18.48;;;;;;;;;;5096276;28;20035;-73
2022/12/12 01:22:00;;;;;;;34.83;19.83;;;;;;;;;;5090830;28;20065;-73
2022/12/12 01:24:26;;;;;;;32.80;19.70;;;;;;;;;;5091465;28;20058;-73
2022/12/12 01:26:52;;;;;;;30.10;19.52;;;;;;;;;;5098056;28;20539;-73
2022/12/12 01:29:18;;;;;;;32.38;18.92;;;;;;;;;;5091847;28;20046;-73
2022/12/12 01:31:44;;;;;;;30.27;16.58;;;;;;;;;;5071195;28;20051;-73
2022/12/12 01:34:10;;;;;;;27.55;16.73;;;;;;;;;;5072897;28;20069;-73
2022/12/12 01:36:37;;;;;;;37.33;17.52;;;;;;;;;;5082582;28;20072;-73
2022/12/12 01:39:04;;;;;;;30.58;17.83;;;;;;;;;;5089657;28;20119;-73
2022/12/12 01:41:31;;;;;;;30.33;16.73;;;;;;;;;;5073634;28;20304;-73
2022/12/12 01:44:00;;;;;;;29.45;17.17;;;;;;;;;;5082039;28;20036;-73
2022/12/12 01:46:29;;;;;;;36.30;17.95;;;;;;;;;;5085892;28;20032;-73
2022/12/12 01:48:57;;;;;;;29.20;17.80;;;;;;;;;;5089673;28;20450;-73
2022/12/12 01:51:24;;;;;;;30.35;17.48;;;;;;;;;;5076012;28;20122;-73
2022/12/12 01:53:53;;;;;;;31.98;18.13;;;;;;;;;;5087548;28;20397;-73
2022/12/12 01:56:20;;;;;;;27.73;17.10;;;;;;;;;;5090049;28;20256;-73
2022/12/12 01:58:48;;;;;;;30.40;17.05;;;;;;;;;;5090156;28;20051;-73
2022/12/12 02:01:14;;;;;;;29.70;16.60;;;;;;;;;;5056034;28;20044;-73
2022/12/12 02:03:41;;;;;;;29.45;17.38;;;;;;;;;;5096068;28;20199;-74
2022/12/12 02:06:10;;;;;;;29.27;16.70;;;;;;;;;;5086288;28;20052;-74
2022/12/12 02:08:36;;;;;;;25.63;16.75;;;;;;;;;;5088673;28;20040;-73
2022/12/12 02:11:02;;;;;;;33.30;17.38;;;;;;;;;;5089843;28;20055;-73
2022/12/12 02:13:30;;;;;;;28.50;18.42;;;;;;;;;;5089590;28;20055;-73
2022/12/12 02:16:06;;;;;;;31.83;18.73;;;;;;;;;;5089264;28;20051;-73
2022/12/12 02:18:47;;;;;;;31.77;18.00;;;;;;;;;;5102645;28;20077;-74
2022/12/12 02:21:28;;;;;;;35.72;18.95;;;;;;;;;;5106857;27;20047;-73
2022/12/12 02:23:57;;;;;;;35.65;19.40;;;;;;;;;;5073650;28;20043;-71
2022/12/12 02:26:35;;;;;;;38.15;19.58;;;;;;;;;;5075112;28;20028;-73
2022/12/12 02:29:07;;;;;;;32.40;18.05;;;;;;;;;;5086103;28;20088;-73
2022/12/12 02:31:36;;;;;;;32.75;18.35;;;;;;;;;;5090539;28;20040;-73
2022/12/12 02:34:02;;;;;;;34.75;19.70;;;;;;;;;;5089351;28;20470;-73
2022/12/12 02:36:34;;;;;;;33.75;16.95;;;;;;;;;;5092916;28;20043;-73
2022/12/12 02:39:10;;;;;;;31.52;17.63;;;;;;;;;;5085455;28;20075;-73
2022/12/12 02:41:45;;;;;;;28.80;17.90;;;;;;;;;;5076498;28;20580;-73
2022/12/12 02:44:17;;;;;;;33.17;18.50;;;;;;;;;;5055166;28;20105;-73
2022/12/12 02:46:49;;;;;;;33.00;17.88;;;;;;;;;;5083641;28;20051;-73
2022/12/12 02:49:24;;;;;;;26.00;17.17;;;;;;;;;;5075699;28;20032;-73
2022/12/12 02:51:52;;;;;;;27.73;15.60;;;;;;;;;;5093510;28;20032;-73
2022/12/12 02:54:19;;;;;;;27.00;16.48;;;;;;;;;;5090816;28;20512;-73
2022/12/12 02:56:50;;;;;;;34.15;17.88;;;;;;;;;;5076396;28;20093;-71
2022/12/12 02:59:20;;;;;;;25.45;16.80;;;;;;;;;;5070075;28;20738;-72
2022/12/12 03:01:51;;;;;;;30.98;17.65;;;;;;;;;;5077678;28;20044;-73
2022/12/12 03:10:13;;;;;;;30.55;17.08;;;;;;;;;;5085967;28;20032;-72
2022/12/12 03:12:53;;;;;;;30.50;17.73;;;;;;;;;;5063818;28;20426;-72
2022/12/12 03:15:23;;;;;;;29.88;17.13;;;;;;;;;;5087633;28;20040;-73
2022/12/12 03:18:19;;;;;;;31.85;18.95;;;;;;;;;;5091738;28;20032;-72
2022/12/12 03:20:49;;;;;;;27.13;18.23;;;;;;;;;;5014198;28;20403;-72
2022/12/12 03:23:17;;;;;;;32.78;19.73;;;;;;;;;;5077556;28;20043;-74
2022/12/12 03:25:43;;;;;;;28.75;17.88;;;;;;;;;;5073889;28;20036;-73
2022/12/12 03:28:13;;;;;;;32.25;18.85;;;;;;;;;;5094088;28;20549;-72
2022/12/12 03:30:42;;;;;;;31.63;17.63;;;;;;;;;;5072568;28;20105;-72
2022/12/12 03:33:11;;;;;;;23.85;16.50;;;;;;;;;;5069123;28;20040;-72
2022/12/12 03:35:39;;;;;;;30.58;17.85;;;;;;;;;;5096605;28;20032;-73
2022/12/12 03:38:18;;;;;;;28.95;16.88;;;;;;;;;;5087445;28;20496;-73
2022/12/12 03:40:44;;;;;;;29.45;18.10;;;;;;;;;;5056354;28;20050;-72
2022/12/12 03:43:24;;;;;;;28.77;17.88;;;;;;;;;;5089277;28;20799;-73
2022/12/12 03:45:58;;;;;;;30.13;18.23;;;;;;;;;;5080747;28;20031;-73
2022/12/12 03:48:33;;;;;;;32.80;18.67;;;;;;;;;;5090941;28;20115;-74
2022/12/12 03:51:02;;;;;;;31.23;17.00;;;;;;;;;;5073124;28;20044;-72
2022/12/12 03:53:28;;;;;;;25.33;16.50;;;;;;;;;;5072199;28;20051;-72
2022/12/12 03:55:54;;;;;;;31.05;18.33;;;;;;;;;;5087920;28;20040;-72
2022/12/12 03:58:25;;;;;;;31.50;16.92;;;;;;;;;;5072215;28;20452;-73
2022/12/12 04:00:53;;;;;;;29.13;16.83;;;;;;;;;;5097413;28;20119;-72
2022/12/12 04:03:37;;;;;;;28.30;16.25;;;;;;;;;;5073459;28;20052;-73
2022/12/12 04:06:27;;;;;;;29.27;16.60;;;;;;;;;;5085437;28;20044;-73
2022/12/12 04:14:56;;;;;;;30.77;16.48;;;;;;;;;;5093421;28;20046;-72
2022/12/12 04:17:26;;;;;;;24.52;15.77;;;;;;;;;;5074302;28;20657;-72
2022/12/12 04:28:37;;;;;;;29.35;16.48;;;;;;;;;;5091255;28;20036;-72
2022/12/12 04:31:04;;;;;;;29.65;16.73;;;;;;;;;;5089366;28;20486;-72
2022/12/12 04:33:35;;;;;;;31.40;17.80;;;;;;;;;;5093843;28;20078;-74
2022/12/12 04:36:01;;;;;;;27.17;16.38;;;;;;;;;;5076204;28;20490;-72
2022/12/12 04:38:28;;;;;;;30.85;17.00;;;;;;;;;;5085127;28;20550;-72
2022/12/12 04:40:56;;;;;;;27.50;16.60;;;;;;;;;;5080791;28;20032;-72
2022/12/12 04:43:27;;;;;;;28.65;16.70;;;;;;;;;;5083232;28;20386;-72
2022/12/12 04:45:55;;;;;;;28.77;17.13;;;;;;;;;;5063129;28;20036;-73
2022/12/12 04:48:28;;;;;;;26.67;16.63;;;;;;;;;;5086694;28;20681;-73
2022/12/12 04:50:55;;;;;;;27.67;17.17;;;;;;;;;;5065578;28;20048;-73
2022/12/12 04:53:26;;;;;;;28.75;15.25;;;;;;;;;;5082492;28;20040;-72
2022/12/12 04:55:55;;;;;;;29.80;16.83;;;;;;;;;;5094158;28;20540;-72
2022/12/12 04:58:21;;;;;;;30.52;17.00;;;;;;;;;;5077570;28;20055;-72
2022/12/12 05:00:59;;;;;;;32.13;15.68;;;;;;;;;;5082083;28;20044;-71
2022/12/12 05:03:32;;;;;;;27.38;16.92;;;;;;;;;;5084775;28;20034;-72
2022/12/12 05:05:58;;;;;;;;;;;;;;;;;;5089363;28;20072;-72
2022/12/12 05:08:35;;;;;;;27.80;16.90;;;;;;;;;;5078649;28;19916;-73
2022/12/12 05:11:03;;;;;;;26.75;14.98;;;;;;;;;;5086702;28;20202;-73
2022/12/12 05:13:34;;;;;;;28.05;16.58;;;;;;;;;;5085471;28;20068;-71
2022/12/12 05:16:01;;;;;;;30.90;16.83;;;;;;;;;;5080749;28;20051;-72
2022/12/12 05:18:27;;;;;;;26.70;15.27;;;;;;;;;;5094352;28;20035;-73
2022/12/12 05:20:53;;;;;;;27.48;15.45;;;;;;;;;;5078594;28;20040;-72
2022/12/12 05:23:19;;;;;;;27.23;16.05;;;;;;;;;;5085916;28;20044;-72
2022/12/12 05:25:46;;;;;;;31.20;15.80;;;;;;;;;;5035803;28;20039;-72
2022/12/12 05:28:12;;;;;;;32.45;16.67;;;;;;;;;;5085925;28;20044;-72
2022/12/12 05:30:38;;;;;;;26.52;15.20;;;;;;;;;;5076176;28;20074;-72
2022/12/12 05:33:04;;;;;;;25.30;15.23;;;;;;;;;;5085178;28;20494;-72
2022/12/12 05:35:32;;;;;;;26.02;15.90;;;;;;;;;;5077970;28;20070;-72
2022/12/12 05:37:59;;;;;;;27.02;15.95;;;;;;;;;;5101824;28;20089;-73
2022/12/12 05:40:25;;;;;;;25.98;15.02;;;;;;;;;;5084849;28;20028;-73
2022/12/12 05:42:51;;;;;;;24.90;14.68;;;;;;;;;;5093582;28;20024;-72
2022/12/12 05:45:17;;;;;;;26.73;16.50;;;;;;;;;;5078710;28;20123;-72
2022/12/12 05:47:43;;;;;;;30.15;16.73;;;;;;;;;;5094868;28;20509;-72
2022/12/12 05:50:10;;;;;;;26.73;15.85;;;;;;;;;;5077713;28;20036;-72
2022/12/12 05:52:36;;;;;;;21.23;13.25;;;;;;;;;;5079500;28;20036;-72
2022/12/12 05:55:02;;;;;;;27.33;15.15;;;;;;;;;;5086115;28;20386;-71
2022/12/12 05:57:28;;;;;;;25.30;14.10;;;;;;;;;;5077752;28;20043;-71
2022/12/12 05:59:54;;;;;;;25.40;14.90;;;;;;;;;;5065372;28;20126;-74
2022/12/12 06:02:24;;;;;;;22.08;14.60;;;;;;;;;;5090813;28;20040;-72
2022/12/12 06:04:50;;;;;;;27.27;14.95;;;;;;;;;;5092531;28;20039;-72
2022/12/12 06:07:16;;;;;;;23.45;13.60;;;;;;;;;;5075428;28;20047;-72
2022/12/12 06:09:42;;;;;;;26.13;14.95;;;;;;;;;;5096053;28;20031;-72
2022/12/12 06:12:08;;;;;;;26.05;14.15;;;;;;;;;;5090827;28;20535;-73
2022/12/12 06:14:35;;;;;;;25.52;13.80;;;;;;;;;;5073199;28;20052;-72
2022/12/12 06:17:02;;;;;;;21.92;13.70;;;;;;;;;;5092776;28;20033;-72
2022/12/12 06:19:28;;;;;;;24.73;14.88;;;;;;;;;;5091121;28;20032;-72
2022/12/12 06:21:54;;;;;;;25.85;15.10;;;;;;;;;;5081006;28;20485;-71
2022/12/12 06:24:20;;;;;;;23.98;14.27;;;;;;;;;;5092475;28;20047;-72
2022/12/12 06:26:46;;;;;;;21.80;14.27;;;;;;;;;;5075746;28;20485;-72
2022/12/12 06:29:13;;;;;;;20.45;14.07;;;;;;;;;;5071909;28;20589;-72
2022/12/12 06:31:39;;;;;;;21.73;13.05;;;;;;;;;;5090980;28;20040;-72
2022/12/12 06:34:06;;;;;;;24.77;15.48;;;;;;;;;;5054885;28;20047;-72
2022/12/12 06:36:32;;;;;;;25.13;14.27;;;;;;;;;;5083711;28;20310;-72
2022/12/12 06:39:00;;;;;;;24.00;13.70;;;;;;;;;;5066794;28;20025;-72
2022/12/12 06:41:27;;;;;;;26.52;14.57;;;;;;;;;;5079161;28;20376;-72
2022/12/12 06:43:54;;;;;;;28.40;14.60;;;;;;;;;;5084671;28;20496;-72
2022/12/12 06:46:22;;;;;;;23.50;13.45;;;;;;;;;;5090020;28;20040;-71
2022/12/12 06:48:48;;;;;;;21.38;13.90;;;;;;;;;;5089051;28;20067;-72
2022/12/12 06:51:16;;;;;;;22.95;13.55;;;;;;;;;;5088575;28;20032;-72
2022/12/12 06:53:42;;;;;;;22.35;14.45;;;;;;;;;;5089620;28;20047;-72
2022/12/12 06:56:09;;;;;;;21.00;13.38;;;;;;;;;;5089753;28;20051;-72
2022/12/12 06:58:36;;;;;;;25.15;13.90;;;;;;;;;;5079478;28;20060;-72
2022/12/12 07:01:02;;;;;;;20.85;12.77;;;;;;;;;;5073126;28;20501;-72
2022/12/12 07:03:29;;;;;;;23.02;13.32;;;;;;;;;;5105291;27;20413;-72
2022/12/12 07:05:55;;;;;;;24.27;14.18;;;;;;;;;;5075402;28;20047;-73
2022/12/12 07:08:21;;;;;;;23.83;14.20;;;;;;;;;;5094658;28;21007;-73
2022/12/12 07:10:47;;;;;;;21.90;13.60;;;;;;;;;;5096857;28;20036;-72
2022/12/12 07:13:13;;;;;;;30.27;14.27;;;;;;;;;;5120601;27;20410;-73
2022/12/12 07:15:46;;;;;;;21.83;12.93;;;;;;;;;;5077898;28;20047;-72
2022/12/12 07:18:13;;;;;;;24.85;14.88;;;;;;;;;;5082772;28;20044;-72
2022/12/12 07:20:39;;;;;;;23.65;14.40;;;;;;;;;;5087099;28;20035;-71
2022/12/12 07:23:06;;;;;;;29.60;15.98;;;;;;;;;;5088438;28;20043;-72
2022/12/12 07:25:32;;;;;;;23.88;14.52;;;;;;;;;;5093298;28;20052;-72
2022/12/12 07:27:58;;;;;;;24.00;14.38;;;;;;;;;;5073752;28;20054;-72
2022/12/12 07:30:24;;;;;;;28.20;15.93;;;;;;;;;;5089581;28;20059;-72
2022/12/12 07:32:51;;;;;;;26.83;16.20;;;;;;;;;;5073239;28;20043;-72
2022/12/12 07:35:17;;;;;;;21.13;12.68;;;;;;;;;;5088739;28;20090;-72
2022/12/12 07:37:43;;;;;;;25.10;14.05;;;;;;;;;;5090205;28;20072;-72
2022/12/12 07:40:09;;;;;;;28.45;17.85;;;;;;;;;;5072937;28;20289;-71
2022/12/12 07:42:35;;;;;;;20.25;13.20;;;;;;;;;;5090268;28;20119;-71
2022/12/12 07:45:01;;;;;;;23.15;14.40;;;;;;;;;;5076622;28;20048;-72
2022/12/12 07:47:27;;;;;;;22.08;15.10;;;;;;;;;;5089689;28;20139;-72
2022/12/12 07:49:54;;;;;;;27.15;13.50;;;;;;;;;;5073123;28;20047;-72
2022/12/12 07:52:20;;;;;;;24.05;13.10;;;;;;;;;;5085653;28;20040;-72
2022/12/12 07:54:46;;;;;;;21.90;12.60;;;;;;;;;;5087892;28;20417;-73
2022/12/12 07:57:13;;;;;;;27.85;15.25;;;;;;;;;;5086053;28;20459;-73
2022/12/12 07:59:39;;;;;;;21.48;13.07;;;;;;;;;;5083309;28;20044;-73
2022/12/12 08:02:05;;;;;;;25.52;14.10;;;;;;;;;;5087087;28;20040;-72
2022/12/12 08:04:32;;;;;;;19.45;12.73;;;;;;;;;;5086720;28;20544;-72
2022/12/12 08:06:58;;;;;;;26.70;13.75;;;;;;;;;;5067389;28;20032;-70
2022/12/12 08:09:24;;;;;;;23.90;14.88;;;;;;;;;;5076974;28;20126;-71
2022/12/12 08:11:50;;;;;;;24.67;15.25;;;;;;;;;;5084611;28;20515;-72
2022/12/12 08:14:16;;;;;;;24.17;13.70;;;;;;;;;;5083242;28;20486;-72
2022/12/12 08:16:43;;;;;;;23.45;15.00;;;;;;;;;;5083707;28;20043;-72
2022/12/12 08:19:09;;;;;;;25.17;13.43;;;;;;;;;;5070041;28;20599;-72
2022/12/12 08:21:35;;;;;;;18.92;11.60;;;;;;;;;;5083612;28;20067;-72
2022/12/12 08:24:02;;;;;;;22.95;13.40;;;;;;;;;;5079967;28;20161;-72
2022/12/12 08:26:29;;;;;;;24.25;14.32;;;;;;;;;;5088382;28;20040;-72
2022/12/12 08:28:56;;;;;;;23.85;13.25;;;;;;;;;;5092227;28;20051;-72
2022/12/12 08:31:22;;;;;;;20.90;13.18;;;;;;;;;;5092547;28;20032;-72
2022/12/12 08:33:52;;;;;;;20.75;13.63;;;;;;;;;;5084016;28;20039;-72
2022/12/12 08:36:19;;;;;;;21.88;13.48;;;;;;;;;;5083017;28;20047;-71
2022/12/12 08:38:46;;;;;;;19.85;13.23;;;;;;;;;;5068574;28;20509;-72
2022/12/12 08:41:12;;;;;;;23.23;13.38;;;;;;;;;;5086386;28;20505;-72
2022/12/12 08:43:39;;;;;;;26.83;12.52;;;;;;;;;;5085900;28;20081;-72
2022/12/12 08:46:06;;;;;;;21.23;13.15;;;;;;;;;;5084560;28;20040;-72
2022/12/12 08:48:32;;;;;;;21.65;12.73;;;;;;;;;;5069315;28;20481;-72
2022/12/12 08:50:59;;;;;;;17.63;11.82;;;;;;;;;;5084460;28;20040;-73
2022/12/12 08:53:26;;;;;;;17.58;12.48;;;;;;;;;;5100684;27;20037;-73
2022/12/12 08:55:52;;;;;;;25.40;13.93;;;;;;;;;;5081791;28;20075;-73
2022/12/12 08:58:19;;;;;;;22.85;13.90;;;;;;;;;;5077702;28;20238;-72
2022/12/12 09:00:45;;;;;;;19.25;11.95;;;;;;;;;;5087141;28;20048;-71
2022/12/12 09:03:11;;;;;;;25.63;13.65;;;;;;;;;;5070052;28;20097;-71
2022/12/12 09:05:37;;;;;;;21.83;13.98;;;;;;;;;;5092084;28;20040;-72
2022/12/12 09:08:03;;;;;;;20.63;13.02;;;;;;;;;;5100019;27;20162;-72
2022/12/12 09:10:29;;;;;;;20.83;13.30;;;;;;;;;;5082518;28;20044;-72
2022/12/12 09:12:55;;;;;;;20.95;13.63;;;;;;;;;;5071989;28;20115;-72
2022/12/12 09:15:22;;;;;;;22.48;14.15;;;;;;;;;;5086563;28;20032;-72
2022/12/12 09:17:49;;;;;;;21.23;12.75;;;;;;;;;;5085071;28;20039;-72
2022/12/12 09:20:15;;;;;;;26.27;13.88;;;;;;;;;;5088360;28;20430;-72
2022/12/12 09:22:41;;;;;;;20.38;12.70;;;;;;;;;;5068082;28;20032;-72
2022/12/12 09:25:07;;;;;;;20.98;14.30;;;;;;;;;;5086154;28;20119;-72
2022/12/12 09:27:33;;;;;;;29.17;15.30;;;;;;;;;;5085681;28;20063;-72
2022/12/12 09:29:59;;;;;;;20.70;13.50;;;;;;;;;;5084721;28;20051;-71
2022/12/12 09:32:26;;;;;;;27.38;15.27;;;;;;;;;;5065297;28;20056;-71
2022/12/12 09:34:52;;;;;;;24.25;13.95;;;;;;;;;;5092790;28;20040;-72
2022/12/12 09:37:18;;;;;;;21.33;13.57;;;;;;;;;;5088568;28;20123;-72
2022/12/12 09:39:44;;;;;;;23.02;13.75;;;;;;;;;;5081707;28;20071;-72
2022/12/12 09:42:10;;;;;;;21.10;12.88;;;;;;;;;;5081986;28;20511;-73
2022/12/12 09:44:37;;;;;;;21.45;13.23;;;;;;;;;;5070932;28;20043;-73
2022/12/12 09:47:07;;;;;;;23.92;14.43;;;;;;;;;;5089640;28;20035;-72
2022/12/12 09:49:33;;;;;;;21.38;12.55;;;;;;;;;;5089653;28;20066;-72
2022/12/12 09:52:00;;;;;;;24.90;13.10;;;;;;;;;;5064153;28;20135;-71
2022/12/12 09:54:26;;;;;;;24.45;13.23;;;;;;;;;;5066285;28;20087;-72
2022/12/12 09:57:15;;;;;;;27.58;13.90;;;;;;;;;;5085340;28;20132;-72
2022/12/12 09:59:45;;;;;;;22.95;13.43;;;;;;;;;;5054637;28;20454;-71
2022/12/12 10:02:30;;;;;;;25.63;15.35;;;;;;;;;;5062382;28;20056;-72
2022/12/12 10:05:04;;;;;;;23.63;14.35;;;;;;;;;;5051576;28;20044;-71
2022/12/12 10:07:33;;;;;;;20.55;14.38;;;;;;;;;;5060917;28;20036;-71
2022/12/12 10:10:11;;;;;;;22.10;13.65;;;;;;;;;;5066597;28;20032;-72
2022/12/12 10:12:38;;;;;;;20.60;13.18;;;;;;;;;;5060693;28;20047;-72
2022/12/12 10:15:11;;;;;;;22.95;13.77;;;;;;;;;;5060380;28;20041;-72
2022/12/12 10:17:41;;;;;;;25.38;15.15;;;;;;;;;;5063645;28;20157;-72
2022/12/12 10:20:13;;;;;;;23.35;13.80;;;;;;;;;;5059285;28;20069;-72
2022/12/12 10:22:48;;;;;;;23.45;13.60;;;;;;;;;;5080563;28;20079;-72
2022/12/12 10:25:23;;;;;;;22.35;14.32;;;;;;;;;;5066429;28;20063;-72
2022/12/12 10:28:09;;;;;;;24.23;14.40;;;;;;;;;;5067912;28;20071;-72
2022/12/12 10:30:38;;;;;;;22.42;13.48;;;;;;;;;;5071890;28;20095;-72
2022/12/12 10:33:12;;;;;;;24.75;14.43;;;;;;;;;;5073417;28;20119;-72
2022/12/12 10:35:55;;;;;;;25.70;14.93;;;;;;;;;;5069278;28;20036;-71
2022/12/12 10:38:21;;;;;;;21.80;13.52;;;;;;;;;;5059636;28;20051;-73
2022/12/12 10:41:04;;;;;;;23.65;14.18;;;;;;;;;;5064769;28;20033;-72
2022/12/12 10:43:30;;;;;;;;;;;;;;;;;;5058015;28;20025;-72
2022/12/12 10:46:05;;;;;;;26.75;15.05;;;;;;;;;;5063045;28;19927;-72
2022/12/12 10:48:31;;;;;;;23.35;14.77;;;;;;;;;;5057517;28;20056;-73
2022/12/12 10:51:01;;;;;;;26.80;16.60;;;;;;;;;;5060547;28;20032;-72
2022/12/12 10:53:28;;;;;;;23.70;15.63;;;;;;;;;;5063014;28;20043;-72
2022/12/12 10:55:56;;;;;;;27.40;16.15;;;;;;;;;;5066008;28;20086;-72
2022/12/12 10:58:27;;;;;;;28.35;16.10;;;;;;;;;;5065365;28;20552;-72
2022/12/12 11:01:00;;;;;;;22.20;13.55;;;;;;;;;;5058226;28;20407;-72
2022/12/12 11:03:28;;;;;;;28.60;17.02;;;;;;;;;;5068113;28;20398;-72
2022/12/12 11:05:57;;;;;;;24.63;14.93;;;;;;;;;;5049786;28;20059;-71
2022/12/12 11:08:29;;;;;;;28.27;17.35;;;;;;;;;;5065017;28;20102;-72
2022/12/12 11:11:18;;;;;;;27.97;16.57;;;;;;;;;;5060429;28;20044;-72
2022/12/12 11:13:46;;;;;;;25.90;18.02;;;;;;;;;;5051555;28;20057;-71
2022/12/12 11:16:15;;;;;;;30.65;16.63;;;;;;;;;;5058993;28;20398;-72
2022/12/12 11:18:43;;;;;;;27.88;17.13;;;;;;;;;;5059595;28;20040;-72
2022/12/12 11:21:11;;;;;;;24.73;15.98;;;;;;;;;;5060589;28;20064;-72
2022/12/12 11:23:41;;;;;;;28.55;17.42;;;;;;;;;;5061464;28;20071;-71
2022/12/12 11:26:15;;;;;;;26.45;16.35;;;;;;;;;;5063938;28;20048;-72
2022/12/12 11:28:42;;;;;;;25.40;15.75;;;;;;;;;;5059417;28;20044;-72
2022/12/12 11:31:10;;;;;;;22.60;14.35;;;;;;;;;;5052240;28;20044;-73
2022/12/12 11:34:05;;;;;;;28.33;16.52;;;;;;;;;;5068440;28;20502;-73
2022/12/12 11:36:34;;;;;;;21.83;15.73;;;;;;;;;;5059155;28;20287;-73
2022/12/12 11:39:02;;;;;;;27.63;17.27;;;;;;;;;;5066452;28;20123;-72
2022/12/12 11:41:28;;;;;;;26.42;15.95;;;;;;;;;;5062445;28;20040;-72
2022/12/12 11:43:56;;;;;;;24.27;15.52;;;;;;;;;;5055773;28;20099;-72
2022/12/12 11:46:29;;;;;;;22.40;15.10;;;;;;;;;;5065334;28;20402;-72
2022/12/12 11:48:55;;;;;;;;;;;;;;;;;;5058953;28;20116;-73
2022/12/12 11:51:38;;;;;;;19.60;12.55;;;;;;;;;;5046016;28;19978;-72
2022/12/12 11:54:15;;;;;;;20.98;13.50;;;;;;;;;;5064475;28;20213;-71
2022/12/12 11:56:47;;;;;;;21.63;14.38;;;;;;;;;;5065217;28;20037;-73
2022/12/12 11:59:23;;;;;;;20.75;14.20;;;;;;;;;;5085125;28;20048;-72
2022/12/12 12:02:01;;;;;;;21.02;13.32;;;;;;;;;;5084910;28;20028;-73
2022/12/12 12:04:33;;;;;;;20.13;13.65;;;;;;;;;;5082228;28;20493;-73
2022/12/12 12:06:59;;;;;;;20.35;13.48;;;5.30;99.90;;;;;;5074837;28;20460;-71
2022/12/12 12:09:32;;;;;;;20.85;14.77;;;9.40;99.90;;;;;;5087432;28;20119;-72
2022/12/12 12:12:19;;;;;;;;;;;9.40;99.90;;;;;;5083767;28;20048;-73
2022/12/12 12:14:57;;;;;;;20.25;13.07;;;9.20;99.20;;;;;;5085499;28;20542;-73
2022/12/12 12:17:31;;;;;;;17.92;13.20;;;9.10;99.90;;;;;;5068728;28;20119;-73
2022/12/12 12:20:23;;;;;;;20.38;14.68;;;9.00;99.90;;;;;;5069881;28;20078;-73
2022/12/12 12:22:56;;;;;;;17.45;12.60;;;8.70;99.90;;;;;;5076558;28;20455;-72
2022/12/12 12:25:33;;;;;;;20.33;13.73;;;;;;;;;;5079379;28;20071;-73
2022/12/12 12:28:17;;;;;;;20.25;14.02;;;;;;;;;;5073425;28;20124;-73
2022/12/12 12:31:30;;;;;;;20.40;13.40;;;8.50;99.90;;;;;;5059591;28;20101;-73
2022/12/12 12:34:10;;;;;;;23.80;14.77;;;8.10;99.90;;;;;;5029192;28;20029;-73
2022/12/12 12:36:54;;;;;;;18.65;13.00;;;8.10;99.90;;;;;;5019178;28;20347;-72
2022/12/12 12:40:01;;;;;;;17.63;12.32;;;8.10;99.90;;;;;;5057700;28;20393;-72
2022/12/12 12:42:46;;;;;;;18.77;13.07;;;8.00;99.90;;;;;;5047650;28;20555;-73
2022/12/12 12:45:12;;;;;;;18.33;13.13;;;;;;;;;;5077474;28;20123;-72
2022/12/12 12:47:38;;;;;;;15.43;12.65;;;;;;;;;;5058561;28;20230;-72
2022/12/12 12:50:12;;;;;;;17.23;12.13;;;;;;;;;;5062520;28;20047;-72
2022/12/12 12:52:40;;;;;;;17.05;11.75;;;;;;;;;;5084947;28;20043;-73
2022/12/12 12:55:16;;;;;;;15.55;11.88;;;;;;;;;;5075428;28;20044;-72
2022/12/12 12:57:43;;;;;;;20.27;13.50;;;;;;;;;;5086756;28;20056;-73
2022/12/12 13:00:15;;;;;;;14.43;10.60;;;;;;;;;;5102109;28;20078;-72
2022/12/12 13:02:50;;;;;;;19.83;12.90;;;;;;;;;;5075696;28;20035;-72
2022/12/12 13:05:29;;;;;;;18.98;12.57;;;;;;;;;;5085991;28;20042;-72
2022/12/12 13:08:14;;;;;;;18.27;13.27;;;;;;;;;;5084419;28;20062;-73
2022/12/12 13:10:43;;;;;;;19.50;13.43;;;;;;;;;;5067887;28;20044;-72
2022/12/12 13:13:18;;;;;;;19.15;12.52;;;7.90;99.90;;;;;;5107877;28;20512;-72
2022/12/12 13:15:49;;;;;;;16.73;11.10;;;6.00;99.90;;;;;;5090254;28;20092;-72
2022/12/12 13:18:16;;;;;;;18.85;12.63;;;;;;;;;;5091308;28;20039;-72
2022/12/12 13:20:42;;;;;;;16.38;11.82;;;;;;;;;;5089204;28;20424;-72
2022/12/12 13:23:12;;;;;;;16.17;10.52;;;;;;;;;;5069645;28;20500;-72
2022/12/12 13:25:40;;;;;;;17.10;11.55;;;;;;;;;;5079482;28;20040;-72
2022/12/12 13:28:10;;;;;;;17.30;10.75;;;;;;;;;;5093829;28;20137;-70
2022/12/12 13:30:43;;;;;;;13.52;10.15;;;;;;;;;;5076881;28;20043;-72
2022/12/12 13:33:18;;;;;;;15.18;11.63;;;;;;;;;;5092616;28;20032;-72
2022/12/12 13:35:49;;;;;;;16.92;11.57;;;;;;;;;;5076901;28;20082;-72
2022/12/12 13:38:23;;;;;;;17.13;11.18;;;;;;;;;;5093530;28;20376;-70
2022/12/12 13:41:01;;;;;;;18.88;12.27;;;;;;;;;;5095440;28;20172;-72
2022/12/12 13:43:41;;;;;;;18.38;11.10;;;;;;;;;;5085362;28;20083;-72
2022/12/12 13:46:23;;;;;;;19.20;11.35;;;;;;;;;;5082879;28;20041;-72
2022/12/12 13:48:55;;;;;;;17.70;11.93;;;;;;;;;;5078752;28;20435;-72
2022/12/12 13:51:29;;;;;;;13.93;10.48;;;;;;;;;;5085196;28;20036;-72
2022/12/12 13:54:08;;;;;;;17.27;11.40;;;;;;;;;;5086989;28;20082;-72
2022/12/12 13:56:34;;;;;;;20.63;13.00;;;;;;;;;;5076984;28;20089;-69
2022/12/12 13:59:00;;;;;;;16.10;11.32;;;;;;;;;;5070126;28;20075;-72
2022/12/12 14:01:26;;;;;;;20.25;13.63;;;;;;;;;;5072420;28;20027;-71
2022/12/12 14:03:52;;;;;;;19.52;11.85;;;;;;;;;;5086701;28;20039;-71
2022/12/12 14:06:19;;;;;;;16.70;11.10;;;;;;;;;;5088244;28;20379;-71
2022/12/12 14:08:48;;;;;;;21.30;12.63;;;;;;;;;;5089179;28;20036;-72
2022/12/12 14:11:23;;;;;;;21.42;12.52;;;;;;;;;;5087820;28;20044;-71
2022/12/12 14:13:50;;;;;;;17.73;11.88;;;;;;;;;;5094464;28;20075;-72
2022/12/12 14:16:16;;;;;;;14.00;9.75;;;;;;;;;;5081994;28;20554;-72
2022/12/12 14:18:48;;;;;;;13.57;10.18;;;;;;;;;;5091497;28;20048;-72
2022/12/12 14:21:15;;;;;;;15.17;10.47;;;;;;;;;;5073971;28;20048;-72
2022/12/12 14:23:41;;;;;;;15.30;9.95;;;;;;;;;;5089632;28;20334;-71
2022/12/12 14:26:28;;;;;;;18.25;11.75;;;;;;;;;;5097014;28;20407;-71
2022/12/12 14:29:13;;;;;;;16.52;10.57;;;;;;;;;;5081627;28;20059;-71
2022/12/12 14:31:40;;;;;;;15.20;9.98;;;;;;;;;;5087816;28;20125;-72
2022/12/12 14:34:12;;;;;;;15.70;10.10;;;;;;;;;;5094562;28;20040;-72
2022/12/12 14:36:53;;;;;;;16.33;10.57;;;;;;;;;;5099447;28;20101;-70
2022/12/12 14:39:45;;;;;;;18.40;10.80;;;;;;;;;;5094957;28;20071;-72
2022/12/12 14:42:20;;;;;;;20.42;11.95;;;;;;;;;;5091510;28;20035;-71
2022/12/12 14:44:46;;;;;;;18.00;11.73;;;;;;;;;;5096428;28;20042;-71
2022/12/12 14:47:16;;;;;;;21.73;11.45;;;;;;;;;;5092579;28;20097;-71
2022/12/12 14:49:42;;;;;;;17.23;11.77;;;;;;;;;;5104878;28;20124;-71